NFC9336 EVRA-EDFH
Flight info
| Callsign | NFC9336 |
|---|---|
| Flight time | 1h 43m |
| Altitude | 34000 |
| Route | ASKOR2H ASKOR DCT BINKA DCT HLZ DCT TIVUN DCT ROLIS DCT |
| Aircraft | B77L/H-SDE1E2E3FGHIJ2J3J4J5M1RWXY/LB1D1 |
Departure
| Time | 2026-04-29 13:08 |
|---|---|
| Airport | Riga International Airport (EVRA) |
Arrival
| Time | 2026-04-29 14:52 |
|---|---|
| Airport | Frankfurt-Hahn Airport (EDFH) |
| Time | Latitude | Longitude | Altitude | Speed | Heading |
|---|---|---|---|---|---|
| 2026-04-29 12:40 | 56.93013 | 23.98037 | 47 ft | 0 kts | 6° |
| 2026-04-29 12:57 | 56.92993 | 23.98033 | 47 ft | 4 kts | 5° |
| 2026-04-29 12:58 | 56.92967 | 23.98029 | 44 ft | 4 kts | 5° |
| 2026-04-29 12:58 | 56.92945 | 23.98026 | 45 ft | 4 kts | 345° |
| 2026-04-29 12:58 | 56.92927 | 23.98050 | 42 ft | 4 kts | 285° |
| 2026-04-29 12:58 | 56.92925 | 23.98063 | 45 ft | 4 kts | 275° |
| 2026-04-29 12:59 | 56.92927 | 23.98032 | 46 ft | 0 kts | 275° |
| 2026-04-29 13:00 | 56.92927 | 23.98019 | 49 ft | 6 kts | 275° |
| 2026-04-29 13:00 | 56.92936 | 23.97838 | 49 ft | 16 kts | 275° |
| 2026-04-29 13:01 | 56.92939 | 23.97660 | 49 ft | 13 kts | 254° |
| 2026-04-29 13:01 | 56.92862 | 23.97593 | 49 ft | 13 kts | 186° |
| 2026-04-29 13:01 | 56.92772 | 23.97576 | 49 ft | 13 kts | 186° |
| 2026-04-29 13:01 | 56.92682 | 23.97562 | 49 ft | 13 kts | 185° |
| 2026-04-29 13:02 | 56.92591 | 23.97546 | 49 ft | 14 kts | 185° |
| 2026-04-29 13:02 | 56.92486 | 23.97530 | 49 ft | 15 kts | 185° |
| 2026-04-29 13:02 | 56.92380 | 23.97509 | 49 ft | 15 kts | 188° |
| 2026-04-29 13:02 | 56.92273 | 23.97485 | 49 ft | 15 kts | 185° |
| 2026-04-29 13:03 | 56.92166 | 23.97468 | 49 ft | 15 kts | 185° |
| 2026-04-29 13:03 | 56.92059 | 23.97451 | 49 ft | 15 kts | 185° |
| 2026-04-29 13:03 | 56.91952 | 23.97434 | 47 ft | 15 kts | 181° |
| 2026-04-29 13:03 | 56.91845 | 23.97426 | 49 ft | 15 kts | 185° |
| 2026-04-29 13:04 | 56.91738 | 23.97407 | 49 ft | 15 kts | 185° |
| 2026-04-29 13:04 | 56.91631 | 23.97390 | 49 ft | 15 kts | 185° |
| 2026-04-29 13:04 | 56.91524 | 23.97373 | 49 ft | 15 kts | 185° |
| 2026-04-29 13:04 | 56.91417 | 23.97355 | 48 ft | 15 kts | 185° |
| 2026-04-29 13:05 | 56.91310 | 23.97337 | 46 ft | 15 kts | 185° |
| 2026-04-29 13:05 | 56.91203 | 23.97319 | 48 ft | 15 kts | 185° |
| 2026-04-29 13:05 | 56.91096 | 23.97301 | 48 ft | 15 kts | 185° |
| 2026-04-29 13:05 | 56.90992 | 23.97261 | 49 ft | 15 kts | 208° |
| 2026-04-29 13:06 | 56.90895 | 23.97180 | 49 ft | 15 kts | 193° |
| 2026-04-29 13:06 | 56.90789 | 23.97157 | 48 ft | 15 kts | 185° |
| 2026-04-29 13:06 | 56.90709 | 23.97138 | 48 ft | 11 kts | 198° |
| 2026-04-29 13:06 | 56.90655 | 23.97040 | 48 ft | 11 kts | 252° |
| 2026-04-29 13:07 | 56.90653 | 23.96900 | 48 ft | 10 kts | 284° |
| 2026-04-29 13:07 | 56.90708 | 23.96847 | 47 ft | 10 kts | 3° |
| 2026-04-29 13:07 | 56.90825 | 23.96865 | 45 ft | 40 kts | 5° |
| 2026-04-29 13:07 | 56.91361 | 23.96950 | 48 ft | 111 kts | 4° |
| 2026-04-29 13:08 | 56.92325 | 23.97081 | 98 ft | 159 kts | 6° |
| 2026-04-29 13:08 | 56.93426 | 23.97299 | 683 ft | 155 kts | 4° |
| 2026-04-29 13:08 | 56.94509 | 23.97446 | 1493 ft | 159 kts | 4° |
| 2026-04-29 13:08 | 56.95656 | 23.97606 | 2107 ft | 171 kts | 4° |
| 2026-04-29 13:09 | 56.96938 | 23.97831 | 2406 ft | 200 kts | 5° |
| 2026-04-29 13:09 | 56.98426 | 23.98064 | 2669 ft | 231 kts | 4° |
| 2026-04-29 13:09 | 57.00059 | 23.98324 | 3428 ft | 240 kts | 3° |
| 2026-04-29 13:09 | 57.01739 | 23.98611 | 4335 ft | 245 kts | 3° |
| 2026-04-29 13:10 | 57.03449 | 23.98905 | 5302 ft | 247 kts | 3° |
| 2026-04-29 13:10 | 57.05161 | 23.99049 | 6071 ft | 249 kts | 352° |
| 2026-04-29 13:10 | 57.06777 | 23.97874 | 6386 ft | 257 kts | 322° |
| 2026-04-29 13:10 | 57.07874 | 23.95292 | 6381 ft | 259 kts | 298° |
| 2026-04-29 13:11 | 57.08640 | 23.92297 | 6387 ft | 259 kts | 297° |
| 2026-04-29 13:11 | 57.09400 | 23.89348 | 6380 ft | 258 kts | 297° |
| 2026-04-29 13:11 | 57.10167 | 23.86374 | 6374 ft | 257 kts | 297° |
| 2026-04-29 13:11 | 57.10909 | 23.83407 | 6376 ft | 253 kts | 291° |
| 2026-04-29 13:12 | 57.11107 | 23.80187 | 6390 ft | 262 kts | 264° |
| 2026-04-29 13:12 | 57.10647 | 23.76913 | 6397 ft | 268 kts | 256° |
| 2026-04-29 13:12 | 57.10123 | 23.73601 | 6395 ft | 270 kts | 257° |
| 2026-04-29 13:12 | 57.09614 | 23.70292 | 6384 ft | 269 kts | 257° |
| 2026-04-29 13:13 | 57.09091 | 23.67009 | 6377 ft | 265 kts | 252° |
| 2026-04-29 13:13 | 57.08056 | 23.64240 | 6447 ft | 268 kts | 223° |
| 2026-04-29 13:13 | 57.06558 | 23.62111 | 6924 ft | 278 kts | 220° |
| 2026-04-29 13:13 | 57.05035 | 23.59879 | 7743 ft | 282 kts | 221° |
| 2026-04-29 13:14 | 57.03506 | 23.57618 | 8640 ft | 283 kts | 221° |
| 2026-04-29 13:14 | 57.01958 | 23.55337 | 9496 ft | 287 kts | 221° |
| 2026-04-29 13:14 | 57.00387 | 23.53032 | 10346 ft | 291 kts | 221° |
| 2026-04-29 13:14 | 56.99330 | 23.51482 | 10779 ft | 297 kts | 221° |
| 2026-04-29 13:15 | 56.97645 | 23.49053 | 11074 ft | 321 kts | 220° |
| 2026-04-29 13:15 | 56.95801 | 23.46457 | 11292 ft | 347 kts | 219° |
| 2026-04-29 13:15 | 56.93811 | 23.43678 | 11510 ft | 371 kts | 219° |
| 2026-04-29 13:15 | 56.91723 | 23.40768 | 12076 ft | 383 kts | 219° |
| 2026-04-29 13:16 | 56.89576 | 23.37777 | 12766 ft | 392 kts | 219° |
| 2026-04-29 13:16 | 56.87385 | 23.34725 | 13551 ft | 399 kts | 219° |
| 2026-04-29 13:16 | 56.85165 | 23.31631 | 14332 ft | 405 kts | 219° |
| 2026-04-29 13:16 | 56.82909 | 23.28487 | 14999 ft | 411 kts | 218° |
| 2026-04-29 13:17 | 56.80613 | 23.25294 | 15648 ft | 419 kts | 218° |
| 2026-04-29 13:17 | 56.78276 | 23.22051 | 16330 ft | 424 kts | 218° |
| 2026-04-29 13:17 | 56.75918 | 23.18763 | 17033 ft | 430 kts | 219° |
| 2026-04-29 13:17 | 56.73529 | 23.15414 | 17716 ft | 436 kts | 219° |
| 2026-04-29 13:18 | 56.71106 | 23.12015 | 18392 ft | 442 kts | 219° |
| 2026-04-29 13:18 | 56.68667 | 23.08598 | 19004 ft | 448 kts | 219° |
| 2026-04-29 13:18 | 56.66180 | 23.05124 | 19646 ft | 452 kts | 219° |
| 2026-04-29 13:18 | 56.63712 | 23.01683 | 20290 ft | 456 kts | 219° |
| 2026-04-29 13:19 | 56.61185 | 22.98167 | 20942 ft | 459 kts | 219° |
| 2026-04-29 13:19 | 56.58639 | 22.94633 | 21576 ft | 464 kts | 219° |
| 2026-04-29 13:19 | 56.56066 | 22.91064 | 22190 ft | 468 kts | 219° |
| 2026-04-29 13:19 | 56.53493 | 22.87502 | 22801 ft | 473 kts | 219° |
| 2026-04-29 13:20 | 56.50870 | 22.83879 | 23422 ft | 477 kts | 219° |
| 2026-04-29 13:20 | 56.48301 | 22.80061 | 23994 ft | 479 kts | 225° |
| 2026-04-29 13:20 | 56.45952 | 22.75760 | 24407 ft | 484 kts | 230° |
| 2026-04-29 13:20 | 56.43663 | 22.71241 | 24852 ft | 490 kts | 230° |
| 2026-04-29 13:21 | 56.41309 | 22.66749 | 25273 ft | 496 kts | 228° |
| 2026-04-29 13:21 | 56.38895 | 22.62251 | 25694 ft | 501 kts | 230° |
| 2026-04-29 13:21 | 56.36848 | 22.57178 | 26073 ft | 500 kts | 245° |
| 2026-04-29 13:21 | 56.35338 | 22.51520 | 26495 ft | 502 kts | 250° |
| 2026-04-29 13:22 | 56.33917 | 22.45725 | 26970 ft | 507 kts | 251° |
| 2026-04-29 13:22 | 56.32493 | 22.39885 | 27418 ft | 512 kts | 251° |
| 2026-04-29 13:22 | 56.31029 | 22.33999 | 27851 ft | 518 kts | 250° |
| 2026-04-29 13:22 | 56.29516 | 22.28070 | 28196 ft | 525 kts | 250° |
| 2026-04-29 13:23 | 56.27958 | 22.22103 | 28570 ft | 531 kts | 250° |
| 2026-04-29 13:23 | 56.26354 | 22.16066 | 29010 ft | 536 kts | 250° |
| 2026-04-29 13:23 | 56.24726 | 22.10000 | 29420 ft | 541 kts | 250° |
| 2026-04-29 13:23 | 56.23075 | 22.03884 | 29823 ft | 546 kts | 250° |
| 2026-04-29 13:24 | 56.21410 | 21.97730 | 30238 ft | 550 kts | 249° |
| 2026-04-29 13:24 | 56.19736 | 21.91558 | 30693 ft | 551 kts | 249° |
| 2026-04-29 13:24 | 56.18058 | 21.85379 | 31251 ft | 549 kts | 249° |
| 2026-04-29 13:24 | 56.16386 | 21.79239 | 31880 ft | 545 kts | 249° |
| 2026-04-29 13:25 | 56.14727 | 21.73158 | 32555 ft | 541 kts | 249° |
| 2026-04-29 13:25 | 56.11436 | 21.61123 | 33816 ft | 534 kts | 249° |
| 2026-04-29 13:25 | 56.09802 | 21.55161 | 34392 ft | 531 kts | 249° |
| 2026-04-29 13:26 | 56.08172 | 21.49229 | 34765 ft | 531 kts | 249° |
| 2026-04-29 13:26 | 56.06541 | 21.43303 | 35093 ft | 532 kts | 249° |
| 2026-04-29 13:26 | 56.04903 | 21.37370 | 35470 ft | 531 kts | 248° |
| 2026-04-29 13:26 | 56.03268 | 21.31468 | 35917 ft | 529 kts | 248° |
| 2026-04-29 13:27 | 56.01638 | 21.25604 | 36334 ft | 527 kts | 248° |
| 2026-04-29 13:27 | 56.00022 | 21.19800 | 36417 ft | 531 kts | 248° |
| 2026-04-29 13:27 | 55.96726 | 21.08009 | 36381 ft | 528 kts | 248° |
| 2026-04-29 13:28 | 55.93449 | 20.96359 | 36394 ft | 525 kts | 248° |
| 2026-04-29 13:28 | 55.90170 | 20.84748 | 36413 ft | 524 kts | 248° |
| 2026-04-29 13:29 | 55.86882 | 20.73162 | 36382 ft | 524 kts | 247° |
| 2026-04-29 13:29 | 55.83580 | 20.61588 | 36430 ft | 525 kts | 247° |
| 2026-04-29 13:30 | 55.80254 | 20.49986 | 36435 ft | 527 kts | 247° |
| 2026-04-29 13:30 | 55.76907 | 20.38369 | 36444 ft | 529 kts | 247° |
| 2026-04-29 13:31 | 55.73540 | 20.26743 | 36442 ft | 531 kts | 247° |
| 2026-04-29 13:31 | 55.70148 | 20.15090 | 36445 ft | 532 kts | 246° |
| 2026-04-29 13:32 | 55.66745 | 20.03458 | 36443 ft | 532 kts | 246° |
| 2026-04-29 13:32 | 55.63331 | 19.91847 | 36415 ft | 531 kts | 246° |
| 2026-04-29 13:33 | 55.59909 | 19.80261 | 36445 ft | 531 kts | 246° |
| 2026-04-29 13:33 | 55.56476 | 19.68697 | 36449 ft | 532 kts | 246° |
| 2026-04-29 13:34 | 55.53029 | 19.57142 | 36457 ft | 532 kts | 246° |
| 2026-04-29 13:34 | 55.49568 | 19.45600 | 36461 ft | 532 kts | 246° |
| 2026-04-29 13:35 | 55.46124 | 19.34166 | 36452 ft | 532 kts | 246° |
| 2026-04-29 13:35 | 55.42640 | 19.22660 | 36460 ft | 532 kts | 246° |
| 2026-04-29 13:36 | 55.39146 | 19.11175 | 36447 ft | 532 kts | 246° |
| 2026-04-29 13:36 | 55.35640 | 18.99703 | 36461 ft | 533 kts | 245° |
| 2026-04-29 13:37 | 55.32130 | 18.88275 | 36455 ft | 534 kts | 245° |
| 2026-04-29 13:37 | 55.28593 | 18.76814 | 36475 ft | 535 kts | 245° |
| 2026-04-29 13:38 | 55.25039 | 18.65357 | 36454 ft | 535 kts | 245° |
| 2026-04-29 13:38 | 55.21475 | 18.53921 | 36456 ft | 534 kts | 245° |
| 2026-04-29 13:39 | 55.17905 | 18.42520 | 36425 ft | 534 kts | 245° |
| 2026-04-29 13:39 | 55.14326 | 18.31146 | 36458 ft | 534 kts | 245° |
| 2026-04-29 13:40 | 55.10739 | 18.19798 | 36461 ft | 533 kts | 245° |
| 2026-04-29 13:40 | 55.07139 | 18.08460 | 36465 ft | 534 kts | 244° |
| 2026-04-29 13:41 | 55.03530 | 17.97150 | 36465 ft | 534 kts | 244° |
| 2026-04-29 13:41 | 54.99930 | 17.85922 | 36465 ft | 534 kts | 244° |
| 2026-04-29 13:42 | 54.96299 | 17.74650 | 36469 ft | 533 kts | 244° |
| 2026-04-29 13:42 | 54.92673 | 17.63447 | 36442 ft | 532 kts | 244° |
| 2026-04-29 13:43 | 54.89032 | 17.52248 | 36456 ft | 532 kts | 244° |
| 2026-04-29 13:43 | 54.85379 | 17.41062 | 36479 ft | 532 kts | 244° |
| 2026-04-29 13:44 | 54.81715 | 17.29894 | 36466 ft | 533 kts | 244° |
| 2026-04-29 13:44 | 54.78037 | 17.18738 | 36460 ft | 533 kts | 244° |
| 2026-04-29 13:45 | 54.74342 | 17.07582 | 36483 ft | 534 kts | 244° |
| 2026-04-29 13:45 | 54.70640 | 16.96455 | 36416 ft | 534 kts | 244° |
| 2026-04-29 13:46 | 54.66925 | 16.85339 | 36459 ft | 534 kts | 244° |
| 2026-04-29 13:46 | 54.63201 | 16.74247 | 36468 ft | 535 kts | 243° |
| 2026-04-29 13:47 | 54.59466 | 16.63172 | 36477 ft | 535 kts | 243° |
| 2026-04-29 13:47 | 54.55711 | 16.52090 | 36470 ft | 535 kts | 243° |
| 2026-04-29 13:48 | 54.51943 | 16.41020 | 36471 ft | 535 kts | 243° |
| 2026-04-29 13:48 | 54.48169 | 16.29983 | 36470 ft | 535 kts | 243° |
| 2026-04-29 13:49 | 54.44392 | 16.18985 | 36459 ft | 534 kts | 243° |
| 2026-04-29 13:49 | 54.40610 | 16.08023 | 36473 ft | 533 kts | 243° |
| 2026-04-29 13:50 | 54.36844 | 15.97157 | 36472 ft | 529 kts | 243° |
| 2026-04-29 13:50 | 54.33082 | 15.86347 | 36475 ft | 531 kts | 243° |
| 2026-04-29 13:51 | 54.29286 | 15.75483 | 36476 ft | 533 kts | 243° |
| 2026-04-29 13:51 | 54.25465 | 15.64599 | 36473 ft | 534 kts | 243° |
| 2026-04-29 13:52 | 54.21631 | 15.53729 | 36474 ft | 534 kts | 242° |
| 2026-04-29 13:52 | 54.17809 | 15.42942 | 36468 ft | 534 kts | 242° |
| 2026-04-29 13:53 | 54.13966 | 15.32142 | 36465 ft | 533 kts | 242° |
| 2026-04-29 13:53 | 54.10108 | 15.21348 | 36468 ft | 532 kts | 242° |
| 2026-04-29 13:54 | 54.06251 | 15.10598 | 36468 ft | 532 kts | 242° |
| 2026-04-29 13:54 | 54.02386 | 14.99877 | 36471 ft | 531 kts | 242° |
| 2026-04-29 13:55 | 53.98515 | 14.89183 | 36464 ft | 530 kts | 242° |
| 2026-04-29 13:55 | 53.94642 | 14.78531 | 36470 ft | 530 kts | 242° |
| 2026-04-29 13:56 | 53.90759 | 14.67893 | 36473 ft | 531 kts | 242° |
| 2026-04-29 13:56 | 53.86868 | 14.57282 | 36478 ft | 533 kts | 242° |
| 2026-04-29 13:57 | 53.82948 | 14.46637 | 36480 ft | 532 kts | 241° |
| 2026-04-29 13:57 | 53.79684 | 14.37804 | 36475 ft | 532 kts | 241° |
| 2026-04-29 13:58 | 53.75103 | 14.25461 | 36478 ft | 531 kts | 241° |
| 2026-04-29 13:58 | 53.71156 | 14.14940 | 36453 ft | 530 kts | 241° |
| 2026-04-29 13:59 | 53.67198 | 14.04453 | 36445 ft | 530 kts | 240° |
| 2026-04-29 13:59 | 53.63235 | 13.93987 | 36456 ft | 529 kts | 240° |
| 2026-04-29 14:00 | 53.59274 | 13.83556 | 36460 ft | 528 kts | 240° |
| 2026-04-29 14:00 | 53.55308 | 13.73156 | 36458 ft | 528 kts | 240° |
| 2026-04-29 14:01 | 53.51362 | 13.62852 | 36456 ft | 528 kts | 240° |
| 2026-04-29 14:01 | 53.47378 | 13.52492 | 36414 ft | 528 kts | 240° |
| 2026-04-29 14:02 | 53.43394 | 13.42176 | 36447 ft | 527 kts | 240° |
| 2026-04-29 14:02 | 53.39400 | 13.31871 | 36451 ft | 527 kts | 240° |
| 2026-04-29 14:03 | 53.36039 | 13.23235 | 36454 ft | 528 kts | 240° |
| 2026-04-29 14:03 | 53.32020 | 13.12946 | 36450 ft | 529 kts | 240° |
| 2026-04-29 14:04 | 53.28012 | 13.02729 | 36448 ft | 529 kts | 240° |
| 2026-04-29 14:04 | 53.23966 | 12.92457 | 36443 ft | 529 kts | 239° |
| 2026-04-29 14:05 | 53.19917 | 12.82218 | 36443 ft | 528 kts | 239° |
| 2026-04-29 14:05 | 53.15872 | 12.72030 | 36439 ft | 528 kts | 239° |
| 2026-04-29 14:06 | 53.11805 | 12.61829 | 36438 ft | 528 kts | 239° |
| 2026-04-29 14:06 | 53.07737 | 12.51665 | 36448 ft | 528 kts | 239° |
| 2026-04-29 14:07 | 53.03660 | 12.41519 | 36440 ft | 528 kts | 239° |
| 2026-04-29 14:07 | 52.99568 | 12.31379 | 36447 ft | 528 kts | 239° |
| 2026-04-29 14:08 | 52.95473 | 12.21270 | 36412 ft | 528 kts | 239° |
| 2026-04-29 14:08 | 52.91372 | 12.11188 | 36433 ft | 527 kts | 239° |
| 2026-04-29 14:09 | 52.87264 | 12.01127 | 36440 ft | 527 kts | 239° |
| 2026-04-29 14:09 | 52.83147 | 11.91085 | 36437 ft | 527 kts | 238° |
| 2026-04-29 14:10 | 52.79023 | 11.81063 | 36439 ft | 528 kts | 238° |
| 2026-04-29 14:10 | 52.74885 | 11.71048 | 36435 ft | 528 kts | 238° |
| 2026-04-29 14:11 | 52.70739 | 11.61054 | 36389 ft | 528 kts | 238° |
| 2026-04-29 14:11 | 52.66587 | 11.51085 | 36435 ft | 527 kts | 238° |
| 2026-04-29 14:12 | 52.62427 | 11.41135 | 36424 ft | 527 kts | 238° |
| 2026-04-29 14:12 | 52.58292 | 11.31283 | 36432 ft | 526 kts | 238° |
| 2026-04-29 14:13 | 52.54101 | 11.21334 | 36419 ft | 526 kts | 238° |
| 2026-04-29 14:13 | 52.49955 | 11.11532 | 36423 ft | 526 kts | 238° |
| 2026-04-29 14:14 | 52.45774 | 11.01684 | 36430 ft | 526 kts | 237° |
| 2026-04-29 14:14 | 52.41594 | 10.91874 | 36420 ft | 525 kts | 237° |
| 2026-04-29 14:15 | 52.37413 | 10.82097 | 36427 ft | 524 kts | 237° |
| 2026-04-29 14:15 | 52.33022 | 10.72544 | 36430 ft | 525 kts | 233° |
| 2026-04-29 14:16 | 52.28458 | 10.63213 | 36430 ft | 526 kts | 233° |
| 2026-04-29 14:16 | 52.23897 | 10.53935 | 36430 ft | 525 kts | 233° |
| 2026-04-29 14:17 | 52.19335 | 10.44624 | 36423 ft | 525 kts | 233° |
| 2026-04-29 14:17 | 52.14783 | 10.35334 | 36393 ft | 524 kts | 233° |
| 2026-04-29 14:18 | 52.10234 | 10.26080 | 36398 ft | 524 kts | 233° |
| 2026-04-29 14:18 | 52.05662 | 10.16818 | 36416 ft | 524 kts | 232° |
| 2026-04-29 14:19 | 52.01095 | 10.07602 | 36412 ft | 524 kts | 232° |
| 2026-04-29 14:19 | 51.96546 | 9.98456 | 36396 ft | 524 kts | 232° |
| 2026-04-29 14:20 | 51.91967 | 9.89284 | 36389 ft | 523 kts | 232° |
| 2026-04-29 14:20 | 51.87414 | 9.80194 | 36378 ft | 523 kts | 232° |
| 2026-04-29 14:21 | 51.82831 | 9.71078 | 36378 ft | 521 kts | 232° |
| 2026-04-29 14:21 | 51.78261 | 9.62020 | 36382 ft | 521 kts | 232° |
| 2026-04-29 14:22 | 51.73678 | 9.52968 | 36372 ft | 521 kts | 232° |
| 2026-04-29 14:22 | 51.69086 | 9.43930 | 36368 ft | 520 kts | 232° |
| 2026-04-29 14:23 | 51.64494 | 9.34925 | 36389 ft | 520 kts | 231° |
| 2026-04-29 14:23 | 51.59901 | 9.25948 | 36358 ft | 519 kts | 231° |
| 2026-04-29 14:24 | 51.55307 | 9.17002 | 36359 ft | 519 kts | 231° |
| 2026-04-29 14:24 | 51.50707 | 9.08075 | 36354 ft | 518 kts | 231° |
| 2026-04-29 14:25 | 51.46118 | 8.99201 | 36359 ft | 518 kts | 231° |
| 2026-04-29 14:25 | 51.41510 | 8.90320 | 36351 ft | 518 kts | 231° |
| 2026-04-29 14:26 | 51.36910 | 8.81485 | 36342 ft | 518 kts | 231° |
| 2026-04-29 14:26 | 51.32293 | 8.72649 | 36340 ft | 517 kts | 231° |
| 2026-04-29 14:27 | 51.27682 | 8.63853 | 36336 ft | 517 kts | 231° |
| 2026-04-29 14:28 | 51.20747 | 8.50683 | 36327 ft | 515 kts | 231° |
| 2026-04-29 14:28 | 51.16132 | 8.41957 | 36325 ft | 515 kts | 231° |
| 2026-04-29 14:29 | 51.11509 | 8.33242 | 36311 ft | 514 kts | 230° |
| 2026-04-29 14:29 | 51.06887 | 8.24560 | 36319 ft | 514 kts | 230° |
| 2026-04-29 14:30 | 51.02318 | 8.16006 | 35915 ft | 501 kts | 230° |
| 2026-04-29 14:30 | 51.00057 | 8.11779 | 35043 ft | 505 kts | 230° |
| 2026-04-29 14:30 | 50.97756 | 8.07486 | 33864 ft | 515 kts | 230° |
| 2026-04-29 14:30 | 50.95347 | 8.03218 | 32508 ft | 524 kts | 223° |
| 2026-04-29 14:31 | 50.92494 | 7.99696 | 31369 ft | 514 kts | 208° |
| 2026-04-29 14:31 | 50.89342 | 7.97152 | 30403 ft | 508 kts | 198° |
| 2026-04-29 14:31 | 50.85964 | 7.95553 | 29869 ft | 503 kts | 186° |
| 2026-04-29 14:31 | 50.82540 | 7.94586 | 29655 ft | 493 kts | 186° |
| 2026-04-29 14:32 | 50.79228 | 7.93627 | 28928 ft | 477 kts | 186° |
| 2026-04-29 14:32 | 50.75989 | 7.92651 | 27834 ft | 472 kts | 187° |
| 2026-04-29 14:32 | 50.72761 | 7.91657 | 27016 ft | 474 kts | 187° |
| 2026-04-29 14:32 | 50.69541 | 7.90650 | 26481 ft | 470 kts | 188° |
| 2026-04-29 14:33 | 50.66353 | 7.89645 | 25936 ft | 466 kts | 188° |
| 2026-04-29 14:33 | 50.63181 | 7.88645 | 25421 ft | 462 kts | 188° |
| 2026-04-29 14:33 | 50.60031 | 7.87655 | 24897 ft | 459 kts | 188° |
| 2026-04-29 14:33 | 50.56911 | 7.86678 | 24378 ft | 456 kts | 188° |
| 2026-04-29 14:34 | 50.53866 | 7.85727 | 23872 ft | 453 kts | 189° |
| 2026-04-29 14:34 | 50.50780 | 7.84764 | 23249 ft | 450 kts | 189° |
| 2026-04-29 14:34 | 50.47689 | 7.83784 | 22718 ft | 443 kts | 191° |
| 2026-04-29 14:34 | 50.44800 | 7.82155 | 22212 ft | 441 kts | 207° |
| 2026-04-29 14:35 | 50.42305 | 7.79503 | 21735 ft | 438 kts | 221° |
| 2026-04-29 14:35 | 50.40252 | 7.76077 | 21236 ft | 429 kts | 234° |
| 2026-04-29 14:35 | 50.38518 | 7.72308 | 20796 ft | 425 kts | 235° |
| 2026-04-29 14:35 | 50.36783 | 7.68567 | 20299 ft | 423 kts | 235° |
| 2026-04-29 14:36 | 50.35045 | 7.64872 | 19822 ft | 420 kts | 234° |
| 2026-04-29 14:36 | 50.33302 | 7.61208 | 19350 ft | 418 kts | 234° |
| 2026-04-29 14:36 | 50.31564 | 7.57581 | 18880 ft | 416 kts | 234° |
| 2026-04-29 14:36 | 50.29831 | 7.53976 | 18376 ft | 414 kts | 234° |
| 2026-04-29 14:37 | 50.28101 | 7.50388 | 17848 ft | 411 kts | 234° |
| 2026-04-29 14:37 | 50.26390 | 7.46841 | 17343 ft | 408 kts | 234° |
| 2026-04-29 14:37 | 50.24688 | 7.43314 | 16865 ft | 405 kts | 234° |
| 2026-04-29 14:37 | 50.22997 | 7.39819 | 16367 ft | 402 kts | 234° |
| 2026-04-29 14:38 | 50.21319 | 7.36358 | 15918 ft | 398 kts | 234° |
| 2026-04-29 14:38 | 50.19585 | 7.33060 | 15436 ft | 391 kts | 224° |
| 2026-04-29 14:38 | 50.17372 | 7.30690 | 14989 ft | 380 kts | 206° |
| 2026-04-29 14:38 | 50.15019 | 7.28863 | 14551 ft | 376 kts | 206° |
| 2026-04-29 14:39 | 50.12705 | 7.26978 | 14115 ft | 375 kts | 207° |
| 2026-04-29 14:39 | 50.10415 | 7.25061 | 13615 ft | 372 kts | 207° |
| 2026-04-29 14:39 | 50.08152 | 7.23147 | 13162 ft | 369 kts | 207° |
| 2026-04-29 14:39 | 50.05915 | 7.21253 | 12711 ft | 367 kts | 207° |
| 2026-04-29 14:40 | 50.03686 | 7.19368 | 12252 ft | 364 kts | 207° |
| 2026-04-29 14:40 | 50.01470 | 7.17496 | 11817 ft | 360 kts | 207° |
| 2026-04-29 14:40 | 49.99316 | 7.15586 | 11400 ft | 357 kts | 210° |
| 2026-04-29 14:40 | 49.97226 | 7.13519 | 11063 ft | 351 kts | 212° |
| 2026-04-29 14:41 | 49.95273 | 7.11549 | 10906 ft | 328 kts | 211° |
| 2026-04-29 14:41 | 49.93418 | 7.09699 | 10768 ft | 307 kts | 211° |
| 2026-04-29 14:41 | 49.91653 | 7.07957 | 10601 ft | 286 kts | 211° |
| 2026-04-29 14:41 | 49.90038 | 7.06368 | 10449 ft | 268 kts | 210° |
| 2026-04-29 14:42 | 49.88452 | 7.04815 | 10421 ft | 277 kts | 211° |
| 2026-04-29 14:42 | 49.86755 | 7.03160 | 10303 ft | 302 kts | 210° |
| 2026-04-29 14:42 | 49.84924 | 7.01373 | 10026 ft | 310 kts | 211° |
| 2026-04-29 14:42 | 49.83125 | 6.99614 | 9712 ft | 310 kts | 211° |
| 2026-04-29 14:43 | 49.81347 | 6.97878 | 9445 ft | 304 kts | 210° |
| 2026-04-29 14:43 | 49.79564 | 6.96140 | 9058 ft | 302 kts | 209° |
| 2026-04-29 14:43 | 49.77822 | 6.94446 | 8658 ft | 289 kts | 210° |
| 2026-04-29 14:43 | 49.76156 | 6.92819 | 8328 ft | 276 kts | 209° |
| 2026-04-29 14:44 | 49.74446 | 6.91747 | 8006 ft | 258 kts | 179° |
| 2026-04-29 14:44 | 49.72719 | 6.92052 | 7809 ft | 253 kts | 154° |
| 2026-04-29 14:44 | 49.71170 | 6.93400 | 7527 ft | 259 kts | 137° |
| 2026-04-29 14:44 | 49.70009 | 6.95475 | 7203 ft | 254 kts | 115° |
| 2026-04-29 14:45 | 49.69612 | 6.98046 | 6918 ft | 244 kts | 87° |
| 2026-04-29 14:45 | 49.70079 | 7.00496 | 6670 ft | 239 kts | 57° |
| 2026-04-29 14:45 | 49.71192 | 7.02305 | 6562 ft | 227 kts | 45° |
| 2026-04-29 14:45 | 49.72357 | 7.03863 | 6436 ft | 214 kts | 44° |
| 2026-04-29 14:46 | 49.73491 | 7.05260 | 6238 ft | 206 kts | 41° |
| 2026-04-29 14:46 | 49.74652 | 7.06505 | 6006 ft | 202 kts | 38° |
| 2026-04-29 14:46 | 49.75827 | 7.07685 | 5724 ft | 199 kts | 37° |
| 2026-04-29 14:46 | 49.76980 | 7.08820 | 5465 ft | 195 kts | 38° |
| 2026-04-29 14:47 | 49.78112 | 7.09929 | 5222 ft | 192 kts | 36° |
| 2026-04-29 14:47 | 49.79244 | 7.11035 | 4952 ft | 193 kts | 36° |
| 2026-04-29 14:47 | 49.80379 | 7.12146 | 4680 ft | 194 kts | 37° |
| 2026-04-29 14:47 | 49.81124 | 7.12878 | 4509 ft | 191 kts | 37° |
| 2026-04-29 14:48 | 49.82600 | 7.14325 | 4227 ft | 187 kts | 37° |
| 2026-04-29 14:48 | 49.83714 | 7.15395 | 3904 ft | 188 kts | 37° |
| 2026-04-29 14:48 | 49.84784 | 7.16467 | 3676 ft | 178 kts | 36° |
| 2026-04-29 14:48 | 49.85780 | 7.17448 | 3473 ft | 165 kts | 38° |
| 2026-04-29 14:49 | 49.86701 | 7.18350 | 3237 ft | 148 kts | 39° |
| 2026-04-29 14:49 | 49.87513 | 7.19148 | 3053 ft | 134 kts | 39° |
| 2026-04-29 14:49 | 49.88310 | 7.19937 | 2892 ft | 140 kts | 38° |
| 2026-04-29 14:49 | 49.88851 | 7.20469 | 2759 ft | 138 kts | 37° |
| 2026-04-29 14:50 | 49.89644 | 7.21251 | 2571 ft | 134 kts | 38° |
| 2026-04-29 14:50 | 49.90413 | 7.22006 | 2389 ft | 131 kts | 38° |
| 2026-04-29 14:50 | 49.91194 | 7.22778 | 2240 ft | 138 kts | 38° |
| 2026-04-29 14:50 | 49.92013 | 7.23577 | 2026 ft | 138 kts | 36° |
| 2026-04-29 14:51 | 49.92830 | 7.24362 | 1785 ft | 137 kts | 37° |
| 2026-04-29 14:51 | 49.93629 | 7.25151 | 1672 ft | 132 kts | 37° |
| 2026-04-29 14:51 | 49.94325 | 7.25851 | 1634 ft | 103 kts | 32° |
| 2026-04-29 14:51 | 49.94773 | 7.26293 | 1627 ft | 50 kts | 32° |
| 2026-04-29 14:52 | 49.94999 | 7.26518 | 1627 ft | 28 kts | 33° |
| 2026-04-29 14:52 | 49.95156 | 7.26675 | 1622 ft | 27 kts | 32° |
| 2026-04-29 14:52 | 49.95315 | 7.26830 | 1617 ft | 27 kts | 32° |
| 2026-04-29 14:52 | 49.95474 | 7.26983 | 1611 ft | 27 kts | 32° |
| 2026-04-29 14:53 | 49.95631 | 7.27139 | 1613 ft | 27 kts | 33° |
| 2026-04-29 14:53 | 49.95749 | 7.27305 | 1609 ft | 20 kts | 85° |
| 2026-04-29 14:53 | 49.95663 | 7.27469 | 1614 ft | 20 kts | 145° |
| 2026-04-29 14:53 | 49.95536 | 7.27526 | 1617 ft | 17 kts | 204° |
| 2026-04-29 14:54 | 49.95444 | 7.27436 | 1617 ft | 16 kts | 213° |
| 2026-04-29 14:54 | 49.95352 | 7.27346 | 1617 ft | 16 kts | 212° |
| 2026-04-29 14:54 | 49.95259 | 7.27254 | 1619 ft | 16 kts | 213° |
| 2026-04-29 14:54 | 49.95169 | 7.27161 | 1620 ft | 11 kts | 213° |
| 2026-04-29 14:55 | 49.95105 | 7.27124 | 1622 ft | 10 kts | 160° |
| 2026-04-29 14:55 | 49.95062 | 7.27205 | 1616 ft | 8 kts | 124° |
| 2026-04-29 14:55 | 49.95054 | 7.27222 | 1621 ft | 1 kts | 124° |
| 2026-04-29 14:55 | 49.95053 | 7.27224 | 1621 ft | 0 kts | 124° |